sensor_id;sensor_type;location;lat;lon;timestamp;temperature;humidity
72576;DHT22;60613;48.658;2.328;2023-02-28T07:13:06;19.10;24.20
72576;DHT22;60613;48.658;2.328;2023-02-28T07:15:32;20.10;24.80
72576;DHT22;60613;48.658;2.328;2023-02-28T07:17:58;20.20;24.70
72576;DHT22;60613;48.658;2.328;2023-02-28T07:20:24;20.30;25.30
72576;DHT22;60613;48.658;2.328;2023-02-28T07:22:50;20.40;26.30
72576;DHT22;60613;48.658;2.328;2023-02-28T07:25:26;20.50;27.20
72576;DHT22;60613;48.658;2.328;2023-02-28T07:27:52;20.60;27.70
72576;DHT22;60613;48.658;2.328;2023-02-28T07:30:18;20.60;27.60
72576;DHT22;60613;48.658;2.328;2023-02-28T07:32:44;20.70;27.00
72576;DHT22;60613;48.658;2.328;2023-02-28T07:35:10;20.80;27.80
72576;DHT22;60613;48.658;2.328;2023-02-28T07:37:35;20.90;27.50
72576;DHT22;60613;48.658;2.328;2023-02-28T07:40:09;21.00;27.10
72576;DHT22;60613;48.658;2.328;2023-02-28T07:42:37;21.00;29.30
72576;DHT22;60613;48.658;2.328;2023-02-28T07:45:04;21.10;27.60
72576;DHT22;60613;48.658;2.328;2023-02-28T07:47:30;21.10;27.40
72576;DHT22;60613;48.658;2.328;2023-02-28T07:49:56;21.10;27.10
72576;DHT22;60613;48.658;2.328;2023-02-28T07:52:22;21.10;27.00
72576;DHT22;60613;48.658;2.328;2023-02-28T07:54:49;21.20;26.90
72576;DHT22;60613;48.658;2.328;2023-02-28T07:57:15;21.20;27.00
72576;DHT22;60613;48.658;2.328;2023-02-28T07:59:41;21.20;27.00
72576;DHT22;60613;48.658;2.328;2023-02-28T08:02:08;21.30;27.10
72576;DHT22;60613;48.658;2.328;2023-02-28T08:04:35;21.30;26.80
72576;DHT22;60613;48.658;2.328;2023-02-28T08:07:01;21.40;26.60
72576;DHT22;60613;48.658;2.328;2023-02-28T08:09:27;21.40;26.70
72576;DHT22;60613;48.658;2.328;2023-02-28T08:11:52;21.40;26.20
72576;DHT22;60613;48.658;2.328;2023-02-28T08:14:18;21.50;26.20
72576;DHT22;60613;48.658;2.328;2023-02-28T08:16:43;21.50;26.20
72576;DHT22;60613;48.658;2.328;2023-02-28T08:19:09;21.50;26.00
72576;DHT22;60613;48.658;2.328;2023-02-28T08:21:34;21.60;25.90
72576;DHT22;60613;48.658;2.328;2023-02-28T08:24:00;21.60;25.80
72576;DHT22;60613;48.658;2.328;2023-02-28T08:26:26;21.70;25.70
72576;DHT22;60613;48.658;2.328;2023-02-28T08:28:51;21.60;25.90
72576;DHT22;60613;48.658;2.328;2023-02-28T08:31:18;21.70;25.80
72576;DHT22;60613;48.658;2.328;2023-02-28T08:33:44;21.70;25.80
72576;DHT22;60613;48.658;2.328;2023-02-28T08:36:10;21.70;25.60
72576;DHT22;60613;48.658;2.328;2023-02-28T08:38:36;21.70;25.50
72576;DHT22;60613;48.658;2.328;2023-02-28T08:41:07;21.80;25.60
72576;DHT22;60613;48.658;2.328;2023-02-28T08:43:35;21.80;25.60
72576;DHT22;60613;48.658;2.328;2023-02-28T08:46:00;21.80;25.70
72576;DHT22;60613;48.658;2.328;2023-02-28T08:48:27;21.90;25.80
72576;DHT22;60613;48.658;2.328;2023-02-28T08:50:57;22.00;25.90
72576;DHT22;60613;48.658;2.328;2023-02-28T08:53:23;22.00;25.80
72576;DHT22;60613;48.658;2.328;2023-02-28T08:56:09;22.00;25.80
72576;DHT22;60613;48.658;2.328;2023-02-28T08:58:35;22.00;26.00
72576;DHT22;60613;48.658;2.328;2023-02-28T09:01:20;22.10;26.00
72576;DHT22;60613;48.658;2.328;2023-02-28T09:03:48;22.20;25.90
72576;DHT22;60613;48.658;2.328;2023-02-28T09:06:16;22.20;25.80
72576;DHT22;60613;48.658;2.328;2023-02-28T09:08:42;22.30;25.80
72576;DHT22;60613;48.658;2.328;2023-02-28T09:11:08;22.30;26.30
72576;DHT22;60613;48.658;2.328;2023-02-28T09:13:34;22.30;25.70
72576;DHT22;60613;48.658;2.328;2023-02-28T09:16:01;22.30;25.80
72576;DHT22;60613;48.658;2.328;2023-02-28T09:18:27;22.30;25.80
72576;DHT22;60613;48.658;2.328;2023-02-28T09:20:53;22.30;25.80
72576;DHT22;60613;48.658;2.328;2023-02-28T09:23:19;22.30;25.90
72576;DHT22;60613;48.658;2.328;2023-02-28T09:25:46;22.30;25.80
72576;DHT22;60613;48.658;2.328;2023-02-28T09:28:13;22.30;25.90
72576;DHT22;60613;48.658;2.328;2023-02-28T09:30:41;22.30;25.80
72576;DHT22;60613;48.658;2.328;2023-02-28T09:33:07;22.30;25.70
72576;DHT22;60613;48.658;2.328;2023-02-28T09:35:33;22.40;25.90
72576;DHT22;60613;48.658;2.328;2023-02-28T09:37:58;22.40;25.80
72576;DHT22;60613;48.658;2.328;2023-02-28T09:40:26;22.50;25.80
72576;DHT22;60613;48.658;2.328;2023-02-28T09:42:53;22.50;25.80
72576;DHT22;60613;48.658;2.328;2023-02-28T09:45:30;22.50;25.80
72576;DHT22;60613;48.658;2.328;2023-02-28T09:48:01;22.50;25.80
72576;DHT22;60613;48.658;2.328;2023-02-28T09:50:40;22.60;25.80
72576;DHT22;60613;48.658;2.328;2023-02-28T09:53:29;22.60;25.80
72576;DHT22;60613;48.658;2.328;2023-02-28T09:56:08;22.60;25.80
72576;DHT22;60613;48.658;2.328;2023-02-28T09:58:46;22.60;25.90
72576;DHT22;60613;48.658;2.328;2023-02-28T10:01:37;22.50;26.00
72576;DHT22;60613;48.658;2.328;2023-02-28T10:06:45;22.50;25.90
72576;DHT22;60613;48.658;2.328;2023-02-28T10:09:19;22.50;25.60
72576;DHT22;60613;48.658;2.328;2023-02-28T10:11:48;22.50;25.70
72576;DHT22;60613;48.658;2.328;2023-02-28T10:14:21;22.40;25.40
72576;DHT22;60613;48.658;2.328;2023-02-28T10:22:03;22.40;25.10
72576;DHT22;60613;48.658;2.328;2023-02-28T10:24:38;22.40;25.00
72576;DHT22;60613;48.658;2.328;2023-02-28T10:29:42;22.40;24.80
72576;DHT22;60613;48.658;2.328;2023-02-28T10:32:13;22.40;24.70
72576;DHT22;60613;48.658;2.328;2023-02-28T10:34:39;22.40;24.60
72576;DHT22;60613;48.658;2.328;2023-02-28T10:37:05;22.50;25.50
72576;DHT22;60613;48.658;2.328;2023-02-28T10:39:45;22.50;24.50
72576;DHT22;60613;48.658;2.328;2023-02-28T10:42:29;22.50;24.40
72576;DHT22;60613;48.658;2.328;2023-02-28T10:45:14;22.60;24.60
72576;DHT22;60613;48.658;2.328;2023-02-28T10:47:56;22.60;24.50
72576;DHT22;60613;48.658;2.328;2023-02-28T10:53:17;22.80;24.90
72576;DHT22;60613;48.658;2.328;2023-02-28T11:01:35;22.90;24.70
72576;DHT22;60613;48.658;2.328;2023-02-28T11:04:01;22.90;24.80
72576;DHT22;60613;48.658;2.328;2023-02-28T11:06:32;22.90;25.00
72576;DHT22;60613;48.658;2.328;2023-02-28T11:09:00;22.90;24.70
72576;DHT22;60613;48.658;2.328;2023-02-28T11:11:28;23.00;24.70
72576;DHT22;60613;48.658;2.328;2023-02-28T11:13:56;23.00;24.90
72576;DHT22;60613;48.658;2.328;2023-02-28T11:16:32;23.00;24.50
72576;DHT22;60613;48.658;2.328;2023-02-28T11:18:58;22.90;24.70
72576;DHT22;60613;48.658;2.328;2023-02-28T11:21:32;22.90;24.50
72576;DHT22;60613;48.658;2.328;2023-02-28T11:24:26;23.00;24.70
72576;DHT22;60613;48.658;2.328;2023-02-28T11:26:53;23.00;24.60
72576;DHT22;60613;48.658;2.328;2023-02-28T11:29:30;23.00;24.50
72576;DHT22;60613;48.658;2.328;2023-02-28T11:34:37;23.10;24.70
72576;DHT22;60613;48.658;2.328;2023-02-28T11:37:05;23.10;24.50
72576;DHT22;60613;48.658;2.328;2023-02-28T11:39:33;23.10;24.50
72576;DHT22;60613;48.658;2.328;2023-02-28T11:47:42;23.10;24.50
72576;DHT22;60613;48.658;2.328;2023-02-28T11:52:45;23.10;24.50
72576;DHT22;60613;48.658;2.328;2023-02-28T12:11:13;22.90;25.30
72576;DHT22;60613;48.658;2.328;2023-02-28T12:16:39;22.90;25.40
72576;DHT22;60613;48.658;2.328;2023-02-28T12:22:02;22.90;25.20
72576;DHT22;60613;48.658;2.328;2023-02-28T12:25:21;22.90;25.10
72576;DHT22;60613;48.658;2.328;2023-02-28T12:27:31;22.90;25.20
72576;DHT22;60613;48.658;2.328;2023-02-28T12:32:43;23.00;25.20
72576;DHT22;60613;48.658;2.328;2023-02-28T12:37:59;23.10;25.00
72576;DHT22;60613;48.658;2.328;2023-02-28T12:40:38;23.10;26.10
72576;DHT22;60613;48.658;2.328;2023-02-28T12:43:08;23.10;26.40
72576;DHT22;60613;48.658;2.328;2023-02-28T12:45:56;23.20;28.30
72576;DHT22;60613;48.658;2.328;2023-02-28T12:51:06;23.10;28.90
72576;DHT22;60613;48.658;2.328;2023-02-28T12:53:57;23.20;29.70
72576;DHT22;60613;48.658;2.328;2023-02-28T12:56:53;23.10;28.70
72576;DHT22;60613;48.658;2.328;2023-02-28T13:10:08;23.20;27.60
72576;DHT22;60613;48.658;2.328;2023-02-28T13:12:35;23.20;27.00
72576;DHT22;60613;48.658;2.328;2023-02-28T13:15:26;23.20;26.70
72576;DHT22;60613;48.658;2.328;2023-02-28T13:17:54;23.20;26.90
72576;DHT22;60613;48.658;2.328;2023-02-28T13:20:25;23.20;27.40
72576;DHT22;60613;48.658;2.328;2023-02-28T13:22:54;23.20;27.40
72576;DHT22;60613;48.658;2.328;2023-02-28T13:27:52;23.20;26.30
72576;DHT22;60613;48.658;2.328;2023-02-28T13:33:35;23.20;26.50
72576;DHT22;60613;48.658;2.328;2023-02-28T13:38:40;23.20;27.10
72576;DHT22;60613;48.658;2.328;2023-02-28T13:41:45;23.30;27.10
72576;DHT22;60613;48.658;2.328;2023-02-28T13:44:15;23.30;27.50
72576;DHT22;60613;48.658;2.328;2023-02-28T13:49:31;23.30;27.60
72576;DHT22;60613;48.658;2.328;2023-02-28T14:07:07;23.20;26.80
72576;DHT22;60613;48.658;2.328;2023-02-28T14:09:47;23.20;27.30
72576;DHT22;60613;48.658;2.328;2023-02-28T14:21:09;23.10;26.90
72576;DHT22;60613;48.658;2.328;2023-02-28T14:23:52;23.10;27.00
72576;DHT22;60613;48.658;2.328;2023-02-28T14:26:43;23.10;25.70
72576;DHT22;60613;48.658;2.328;2023-02-28T14:37:56;23.00;26.50
72576;DHT22;60613;48.658;2.328;2023-02-28T14:40:26;22.90;26.30
72576;DHT22;60613;48.658;2.328;2023-02-28T14:43:04;22.90;26.40
72576;DHT22;60613;48.658;2.328;2023-02-28T14:45:32;22.90;26.30
72576;DHT22;60613;48.658;2.328;2023-02-28T14:47:59;22.90;26.30
72576;DHT22;60613;48.658;2.328;2023-02-28T14:50:35;22.80;26.10
72576;DHT22;60613;48.658;2.328;2023-02-28T14:53:02;22.90;26.10
72576;DHT22;60613;48.658;2.328;2023-02-28T14:55:34;22.80;26.10
72576;DHT22;60613;48.658;2.328;2023-02-28T14:58:02;22.80;26.00
72576;DHT22;60613;48.658;2.328;2023-02-28T15:00:32;22.80;25.90
72576;DHT22;60613;48.658;2.328;2023-02-28T15:02:59;22.80;26.00
72576;DHT22;60613;48.658;2.328;2023-02-28T15:05:33;22.80;26.80
72576;DHT22;60613;48.658;2.328;2023-02-28T15:08:16;22.80;25.80
72576;DHT22;60613;48.658;2.328;2023-02-28T15:10:54;22.80;25.80
72576;DHT22;60613;48.658;2.328;2023-02-28T15:13:21;22.80;26.60
72576;DHT22;60613;48.658;2.328;2023-02-28T15:15:50;22.80;25.60
72576;DHT22;60613;48.658;2.328;2023-02-28T15:18:47;22.70;25.60
72576;DHT22;60613;48.658;2.328;2023-02-28T15:21:35;22.70;25.60
72576;DHT22;60613;48.658;2.328;2023-02-28T15:24:28;22.70;26.40
72576;DHT22;60613;48.658;2.328;2023-02-28T15:26:58;22.70;25.30
72576;DHT22;60613;48.658;2.328;2023-02-28T15:29:27;22.70;25.40
72576;DHT22;60613;48.658;2.328;2023-02-28T15:32:06;22.70;25.40
72576;DHT22;60613;48.658;2.328;2023-02-28T15:34:40;22.70;25.40
72576;DHT22;60613;48.658;2.328;2023-02-28T15:39:54;22.70;25.30
72576;DHT22;60613;48.658;2.328;2023-02-28T15:42:22;22.70;25.30
72576;DHT22;60613;48.658;2.328;2023-02-28T15:44:49;22.70;25.30
72576;DHT22;60613;48.658;2.328;2023-02-28T15:47:23;22.60;25.30
72576;DHT22;60613;48.658;2.328;2023-02-28T15:49:54;22.60;25.30
72576;DHT22;60613;48.658;2.328;2023-02-28T15:55:18;22.70;25.20
72576;DHT22;60613;48.658;2.328;2023-02-28T15:57:46;22.60;25.10
72576;DHT22;60613;48.658;2.328;2023-02-28T16:00:15;22.70;25.20
72576;DHT22;60613;48.658;2.328;2023-02-28T16:02:41;22.60;25.00
72576;DHT22;60613;48.658;2.328;2023-02-28T16:07:40;22.60;25.10
72576;DHT22;60613;48.658;2.328;2023-02-28T16:10:08;22.60;25.00
72576;DHT22;60613;48.658;2.328;2023-02-28T16:12:37;22.60;25.00
72576;DHT22;60613;48.658;2.328;2023-02-28T16:17:41;22.60;25.00
72576;DHT22;60613;48.658;2.328;2023-02-28T16:22:39;22.60;24.90
72576;DHT22;60613;48.658;2.328;2023-02-28T16:25:05;22.50;25.00
72576;DHT22;60613;48.658;2.328;2023-02-28T16:27:36;22.60;24.90
72576;DHT22;60613;48.658;2.328;2023-02-28T16:30:04;22.60;24.90
72576;DHT22;60613;48.658;2.328;2023-02-28T16:32:31;22.60;24.90
72576;DHT22;60613;48.658;2.328;2023-02-28T16:34:57;22.60;24.80
72576;DHT22;60613;48.658;2.328;2023-02-28T16:37:22;22.50;24.70
72576;DHT22;60613;48.658;2.328;2023-02-28T16:39:48;22.50;24.80
72576;DHT22;60613;48.658;2.328;2023-02-28T16:42:26;22.50;24.70
72576;DHT22;60613;48.658;2.328;2023-02-28T16:44:53;22.50;24.80
72576;DHT22;60613;48.658;2.328;2023-02-28T16:47:19;22.50;24.70
72576;DHT22;60613;48.658;2.328;2023-02-28T16:49:44;22.50;24.70
72576;DHT22;60613;48.658;2.328;2023-02-28T16:52:11;22.50;24.70
72576;DHT22;60613;48.658;2.328;2023-02-28T16:54:38;22.50;24.80
72576;DHT22;60613;48.658;2.328;2023-02-28T16:57:05;22.50;24.70
72576;DHT22;60613;48.658;2.328;2023-02-28T16:59:31;22.50;24.70
72576;DHT22;60613;48.658;2.328;2023-02-28T17:01:57;22.40;24.40
72576;DHT22;60613;48.658;2.328;2023-02-28T17:04:27;22.40;24.70
72576;DHT22;60613;48.658;2.328;2023-02-28T17:06:53;22.40;24.70
72576;DHT22;60613;48.658;2.328;2023-02-28T17:09:21;22.50;24.40
72576;DHT22;60613;48.658;2.328;2023-02-28T17:11:48;22.40;24.50
72576;DHT22;60613;48.658;2.328;2023-02-28T17:14:14;22.50;24.60
72576;DHT22;60613;48.658;2.328;2023-02-28T17:16:40;22.50;24.40
72576;DHT22;60613;48.658;2.328;2023-02-28T17:19:13;22.50;24.50
72576;DHT22;60613;48.658;2.328;2023-02-28T17:21:39;22.50;24.70
72576;DHT22;60613;48.658;2.328;2023-02-28T17:24:07;22.50;25.00
72576;DHT22;60613;48.658;2.328;2023-02-28T17:26:33;22.50;25.10
72576;DHT22;60613;48.658;2.328;2023-02-28T17:28:59;22.50;25.50
72576;DHT22;60613;48.658;2.328;2023-02-28T17:31:26;22.50;25.20
72576;DHT22;60613;48.658;2.328;2023-02-28T17:33:52;22.60;25.40
72576;DHT22;60613;48.658;2.328;2023-02-28T17:36:28;22.60;26.00
72576;DHT22;60613;48.658;2.328;2023-02-28T17:38:54;22.60;25.60
72576;DHT22;60613;48.658;2.328;2023-02-28T17:41:23;22.60;25.70
72576;DHT22;60613;48.658;2.328;2023-02-28T17:43:51;22.60;26.10
72576;DHT22;60613;48.658;2.328;2023-02-28T17:46:20;22.60;26.20
72576;DHT22;60613;48.658;2.328;2023-02-28T17:48:50;22.70;27.40
72576;DHT22;60613;48.658;2.328;2023-02-28T17:51:17;22.70;27.40
72576;DHT22;60613;48.658;2.328;2023-02-28T17:53:44;22.60;27.60
72576;DHT22;60613;48.658;2.328;2023-02-28T17:56:18;22.60;27.20
72576;DHT22;60613;48.658;2.328;2023-02-28T17:58:44;22.60;27.50
72576;DHT22;60613;48.658;2.328;2023-02-28T18:01:09;22.60;28.10
72576;DHT22;60613;48.658;2.328;2023-02-28T18:03:36;22.60;28.00
72576;DHT22;60613;48.658;2.328;2023-02-28T18:06:02;22.70;27.70
72576;DHT22;60613;48.658;2.328;2023-02-28T18:08:28;22.60;28.40
72576;DHT22;60613;48.658;2.328;2023-02-28T18:10:54;22.60;29.90
72576;DHT22;60613;48.658;2.328;2023-02-28T18:13:19;22.60;30.00
72576;DHT22;60613;48.658;2.328;2023-02-28T18:15:45;22.50;30.00
72576;DHT22;60613;48.658;2.328;2023-02-28T18:18:10;22.50;30.60
72576;DHT22;60613;48.658;2.328;2023-02-28T18:20:36;22.40;30.70
72576;DHT22;60613;48.658;2.328;2023-02-28T18:23:02;22.40;29.00
72576;DHT22;60613;48.658;2.328;2023-02-28T18:25:28;22.40;28.80
72576;DHT22;60613;48.658;2.328;2023-02-28T18:27:54;22.40;28.80
72576;DHT22;60613;48.658;2.328;2023-02-28T18:30:30;22.40;28.70
72576;DHT22;60613;48.658;2.328;2023-02-28T18:32:57;22.40;28.50
72576;DHT22;60613;48.658;2.328;2023-02-28T18:35:24;22.30;28.00
72576;DHT22;60613;48.658;2.328;2023-02-28T18:38:01;22.30;27.80
72576;DHT22;60613;48.658;2.328;2023-02-28T18:40:26;22.30;27.40
72576;DHT22;60613;48.658;2.328;2023-02-28T18:42:52;22.30;27.10
72576;DHT22;60613;48.658;2.328;2023-02-28T18:45:18;22.30;27.10
72576;DHT22;60613;48.658;2.328;2023-02-28T18:47:43;22.20;26.70
72576;DHT22;60613;48.658;2.328;2023-02-28T18:50:09;22.20;26.70
72576;DHT22;60613;48.658;2.328;2023-02-28T18:52:35;22.20;26.60
72576;DHT22;60613;48.658;2.328;2023-02-28T18:55:01;22.20;26.40
72576;DHT22;60613;48.658;2.328;2023-02-28T18:57:27;22.20;26.40
72576;DHT22;60613;48.658;2.328;2023-02-28T18:59:53;22.20;27.10
72576;DHT22;60613;48.658;2.328;2023-02-28T19:02:18;22.20;26.10
72576;DHT22;60613;48.658;2.328;2023-02-28T19:04:44;22.20;26.00
72576;DHT22;60613;48.658;2.328;2023-02-28T19:07:09;22.20;26.00
72576;DHT22;60613;48.658;2.328;2023-02-28T19:09:35;22.10;25.80
72576;DHT22;60613;48.658;2.328;2023-02-28T19:12:01;22.10;25.80
72576;DHT22;60613;48.658;2.328;2023-02-28T19:14:26;22.10;25.70
72576;DHT22;60613;48.658;2.328;2023-02-28T19:16:52;22.10;25.70
72576;DHT22;60613;48.658;2.328;2023-02-28T19:19:17;22.10;25.70
72576;DHT22;60613;48.658;2.328;2023-02-28T19:21:43;22.10;25.70
72576;DHT22;60613;48.658;2.328;2023-02-28T19:24:09;22.10;25.70
72576;DHT22;60613;48.658;2.328;2023-02-28T19:26:34;22.10;25.50
72576;DHT22;60613;48.658;2.328;2023-02-28T19:29:04;22.10;25.60
72576;DHT22;60613;48.658;2.328;2023-02-28T19:31:30;22.10;25.60
72576;DHT22;60613;48.658;2.328;2023-02-28T19:33:55;22.10;25.60
72576;DHT22;60613;48.658;2.328;2023-02-28T19:36:22;22.10;25.60
72576;DHT22;60613;48.658;2.328;2023-02-28T19:38:48;22.10;25.70
72576;DHT22;60613;48.658;2.328;2023-02-28T19:41:16;22.10;25.60
72576;DHT22;60613;48.658;2.328;2023-02-28T19:43:42;22.10;25.50
72576;DHT22;60613;48.658;2.328;2023-02-28T19:46:08;22.10;25.60
72576;DHT22;60613;48.658;2.328;2023-02-28T19:48:33;22.10;25.50
72576;DHT22;60613;48.658;2.328;2023-02-28T19:51:10;22.10;25.40
72576;DHT22;60613;48.658;2.328;2023-02-28T19:53:37;22.10;26.40
72576;DHT22;60613;48.658;2.328;2023-02-28T19:56:03;22.10;25.40
72576;DHT22;60613;48.658;2.328;2023-02-28T19:58:30;22.10;25.40
72576;DHT22;60613;48.658;2.328;2023-02-28T20:00:56;22.10;25.40
72576;DHT22;60613;48.658;2.328;2023-02-28T20:03:22;22.10;25.40
72576;DHT22;60613;48.658;2.328;2023-02-28T20:05:58;22.10;25.30
72576;DHT22;60613;48.658;2.328;2023-02-28T20:08:25;22.10;25.30
72576;DHT22;60613;48.658;2.328;2023-02-28T20:10:50;22.10;25.20
72576;DHT22;60613;48.658;2.328;2023-02-28T20:13:16;22.00;25.20
72576;DHT22;60613;48.658;2.328;2023-02-28T20:15:42;22.10;25.30
72576;DHT22;60613;48.658;2.328;2023-02-28T20:18:08;22.00;25.10
72576;DHT22;60613;48.658;2.328;2023-02-28T20:20:33;22.00;25.20
72576;DHT22;60613;48.658;2.328;2023-02-28T20:23:02;22.00;25.10
72576;DHT22;60613;48.658;2.328;2023-02-28T20:25:28;22.00;25.10
72576;DHT22;60613;48.658;2.328;2023-02-28T20:27:53;22.00;25.20
72576;DHT22;60613;48.658;2.328;2023-02-28T20:30:19;22.00;25.10
72576;DHT22;60613;48.658;2.328;2023-02-28T20:32:47;22.00;25.10
72576;DHT22;60613;48.658;2.328;2023-02-28T20:35:13;22.00;26.00
72576;DHT22;60613;48.658;2.328;2023-02-28T20:37:39;22.00;25.00
72576;DHT22;60613;48.658;2.328;2023-02-28T20:40:05;22.00;25.00
72576;DHT22;60613;48.658;2.328;2023-02-28T20:42:31;22.10;25.00
72576;DHT22;60613;48.658;2.328;2023-02-28T20:44:56;22.10;25.00
72576;DHT22;60613;48.658;2.328;2023-02-28T20:47:22;22.10;24.90
72576;DHT22;60613;48.658;2.328;2023-02-28T20:49:48;22.10;24.80
72576;DHT22;60613;48.658;2.328;2023-02-28T20:52:13;22.00;24.80
72576;DHT22;60613;48.658;2.328;2023-02-28T20:54:39;22.00;24.80
72576;DHT22;60613;48.658;2.328;2023-02-28T20:57:04;22.00;24.80
72576;DHT22;60613;48.658;2.328;2023-02-28T20:59:30;22.10;24.80
72576;DHT22;60613;48.658;2.328;2023-02-28T21:01:55;22.00;24.80
72576;DHT22;60613;48.658;2.328;2023-02-28T21:04:21;22.00;24.60
72576;DHT22;60613;48.658;2.328;2023-02-28T21:06:47;22.10;24.70
72576;DHT22;60613;48.658;2.328;2023-02-28T21:09:14;22.00;24.80
72576;DHT22;60613;48.658;2.328;2023-02-28T21:11:41;22.00;24.60
72576;DHT22;60613;48.658;2.328;2023-02-28T21:14:12;22.10;24.60
72576;DHT22;60613;48.658;2.328;2023-02-28T21:16:39;22.10;24.50
72576;DHT22;60613;48.658;2.328;2023-02-28T21:19:05;22.10;24.30
72576;DHT22;60613;48.658;2.328;2023-02-28T21:21:42;22.10;24.50
72576;DHT22;60613;48.658;2.328;2023-02-28T21:24:12;22.20;24.30
72576;DHT22;60613;48.658;2.328;2023-02-28T21:26:40;22.20;24.60
72576;DHT22;60613;48.658;2.328;2023-02-28T21:29:06;22.20;24.70
72576;DHT22;60613;48.658;2.328;2023-02-28T21:31:34;22.20;24.90
72576;DHT22;60613;48.658;2.328;2023-02-28T21:34:01;22.10;24.90
72576;DHT22;60613;48.658;2.328;2023-02-28T21:36:28;22.10;25.00
72576;DHT22;60613;48.658;2.328;2023-02-28T21:38:59;22.10;24.90
72576;DHT22;60613;48.658;2.328;2023-02-28T21:41:26;22.00;24.80
72576;DHT22;60613;48.658;2.328;2023-02-28T21:43:54;22.00;24.90
72576;DHT22;60613;48.658;2.328;2023-02-28T21:46:22;22.00;24.80
72576;DHT22;60613;48.658;2.328;2023-02-28T21:48:48;22.00;24.80
72576;DHT22;60613;48.658;2.328;2023-02-28T21:51:17;22.00;24.90
72576;DHT22;60613;48.658;2.328;2023-02-28T21:53:43;22.00;24.80
72576;DHT22;60613;48.658;2.328;2023-02-28T21:56:18;22.00;24.70
72576;DHT22;60613;48.658;2.328;2023-02-28T21:58:44;22.00;24.60
